SWA1890 PHLI-PHOG
Flight info
| Callsign | SWA1890 |
|---|---|
| Flight time | 0h 34m |
| Altitude | 25000 |
| Route | V15 HNL V2 HARPO V17 OGG |
| Aircraft | B738/M-SADE2E3GIJ4RWZ/LB1D1 |
Departure
| Time | 2026-04-19 03:52 |
|---|---|
| Airport | Lihue Airport (PHLI) |
Arrival
| Time | 2026-04-19 04:26 |
|---|---|
| Airport | Kahului International Airport (PHOG) |
| Time | Latitude | Longitude | Altitude | Speed | Heading |
|---|---|---|---|---|---|
| 2026-04-19 03:44 | 21.97792 | -159.34814 | 140 ft | 0 kts | 314° |
| 2026-04-19 03:46 | 21.97787 | -159.34809 | 140 ft | 2 kts | 313° |
| 2026-04-19 03:46 | 21.97776 | -159.34796 | 140 ft | 2 kts | 313° |
| 2026-04-19 03:46 | 21.97765 | -159.34783 | 140 ft | 2 kts | 311° |
| 2026-04-19 03:46 | 21.97754 | -159.34769 | 140 ft | 2 kts | 297° |
| 2026-04-19 03:47 | 21.97754 | -159.34755 | 140 ft | 1 kts | 224° |
| 2026-04-19 03:47 | 21.97755 | -159.34754 | 140 ft | 0 kts | 225° |
| 2026-04-19 03:49 | 21.97751 | -159.34758 | 140 ft | 4 kts | 225° |
| 2026-04-19 03:49 | 21.97708 | -159.34804 | 143 ft | 14 kts | 224° |
| 2026-04-19 03:49 | 21.97640 | -159.34875 | 147 ft | 12 kts | 218° |
| 2026-04-19 03:50 | 21.97569 | -159.34857 | 149 ft | 12 kts | 139° |
| 2026-04-19 03:50 | 21.97500 | -159.34833 | 151 ft | 11 kts | 207° |
| 2026-04-19 03:50 | 21.97444 | -159.34890 | 154 ft | 11 kts | 225° |
| 2026-04-19 03:50 | 21.97386 | -159.34940 | 157 ft | 11 kts | 194° |
| 2026-04-19 03:51 | 21.97324 | -159.34909 | 158 ft | 10 kts | 130° |
| 2026-04-19 03:51 | 21.97332 | -159.34841 | 156 ft | 13 kts | 46° |
| 2026-04-19 03:51 | 21.97558 | -159.34599 | 144 ft | 85 kts | 44° |
| 2026-04-19 03:51 | 21.98147 | -159.33960 | 151 ft | 148 kts | 47° |
| 2026-04-19 03:52 | 21.98848 | -159.33184 | 951 ft | 142 kts | 47° |
| 2026-04-19 03:52 | 21.99461 | -159.32308 | 1532 ft | 158 kts | 70° |
| 2026-04-19 03:52 | 21.99589 | -159.31060 | 1959 ft | 185 kts | 105° |
| 2026-04-19 03:52 | 21.99005 | -159.29689 | 2278 ft | 217 kts | 117° |
| 2026-04-19 03:53 | 21.98258 | -159.28177 | 2673 ft | 237 kts | 118° |
| 2026-04-19 03:53 | 21.97444 | -159.26540 | 3059 ft | 259 kts | 117° |
| 2026-04-19 03:53 | 21.96571 | -159.24787 | 3753 ft | 270 kts | 117° |
| 2026-04-19 03:53 | 21.95691 | -159.23018 | 4879 ft | 266 kts | 117° |
| 2026-04-19 03:54 | 21.94809 | -159.21245 | 5821 ft | 270 kts | 117° |
| 2026-04-19 03:54 | 21.93918 | -159.19451 | 6741 ft | 274 kts | 117° |
| 2026-04-19 03:54 | 21.93009 | -159.17621 | 7542 ft | 280 kts | 118° |
| 2026-04-19 03:54 | 21.92094 | -159.15774 | 8341 ft | 286 kts | 118° |
| 2026-04-19 03:55 | 21.91146 | -159.13864 | 9182 ft | 292 kts | 118° |
| 2026-04-19 03:55 | 21.90179 | -159.11914 | 9996 ft | 298 kts | 119° |
| 2026-04-19 03:55 | 21.89505 | -159.10556 | 10419 ft | 307 kts | 119° |
| 2026-04-19 03:55 | 21.88441 | -159.08415 | 10674 ft | 333 kts | 119° |
| 2026-04-19 03:56 | 21.87307 | -159.06132 | 10862 ft | 357 kts | 119° |
| 2026-04-19 03:56 | 21.86114 | -159.03730 | 11385 ft | 368 kts | 119° |
| 2026-04-19 03:56 | 21.85312 | -159.02114 | 11803 ft | 373 kts | 119° |
| 2026-04-19 03:56 | 21.83666 | -158.98795 | 12761 ft | 378 kts | 119° |
| 2026-04-19 03:57 | 21.82840 | -158.97133 | 13245 ft | 381 kts | 119° |
| 2026-04-19 03:57 | 21.81579 | -158.94596 | 13887 ft | 387 kts | 119° |
| 2026-04-19 03:57 | 21.80306 | -158.92034 | 14564 ft | 390 kts | 119° |
| 2026-04-19 03:57 | 21.79022 | -158.89453 | 15271 ft | 392 kts | 119° |
| 2026-04-19 03:58 | 21.77731 | -158.86860 | 15930 ft | 395 kts | 119° |
| 2026-04-19 03:58 | 21.76427 | -158.84241 | 16579 ft | 399 kts | 120° |
| 2026-04-19 03:58 | 21.75111 | -158.81599 | 17241 ft | 402 kts | 120° |
| 2026-04-19 03:58 | 21.73786 | -158.78941 | 17885 ft | 405 kts | 120° |
| 2026-04-19 03:59 | 21.72445 | -158.76253 | 18494 ft | 409 kts | 120° |
| 2026-04-19 03:59 | 21.71095 | -158.73548 | 19023 ft | 412 kts | 120° |
| 2026-04-19 03:59 | 21.69731 | -158.70816 | 19522 ft | 417 kts | 120° |
| 2026-04-19 03:59 | 21.68351 | -158.68053 | 20031 ft | 421 kts | 120° |
| 2026-04-19 04:00 | 21.66956 | -158.65263 | 20527 ft | 426 kts | 120° |
| 2026-04-19 04:00 | 21.65549 | -158.62450 | 21030 ft | 430 kts | 120° |
| 2026-04-19 04:00 | 21.64127 | -158.59608 | 21521 ft | 434 kts | 120° |
| 2026-04-19 04:00 | 21.62691 | -158.56739 | 21998 ft | 438 kts | 120° |
| 2026-04-19 04:01 | 21.61240 | -158.53842 | 22460 ft | 442 kts | 120° |
| 2026-04-19 04:01 | 21.58297 | -158.47971 | 23309 ft | 450 kts | 120° |
| 2026-04-19 04:01 | 21.56807 | -158.45000 | 23758 ft | 453 kts | 120° |
| 2026-04-19 04:02 | 21.55303 | -158.42003 | 24125 ft | 457 kts | 120° |
| 2026-04-19 04:02 | 21.53790 | -158.38991 | 24523 ft | 459 kts | 120° |
| 2026-04-19 04:02 | 21.52289 | -158.36004 | 24886 ft | 462 kts | 120° |
| 2026-04-19 04:02 | 21.50754 | -158.32950 | 25064 ft | 468 kts | 120° |
| 2026-04-19 04:03 | 21.49194 | -158.29851 | 25068 ft | 476 kts | 120° |
| 2026-04-19 04:03 | 21.47612 | -158.26710 | 25081 ft | 480 kts | 120° |
| 2026-04-19 04:03 | 21.46025 | -158.23558 | 25079 ft | 478 kts | 120° |
| 2026-04-19 04:03 | 21.44449 | -158.20427 | 25072 ft | 474 kts | 120° |
| 2026-04-19 04:04 | 21.42886 | -158.17326 | 25082 ft | 472 kts | 120° |
| 2026-04-19 04:04 | 21.41325 | -158.14230 | 25087 ft | 470 kts | 120° |
| 2026-04-19 04:04 | 21.39767 | -158.11145 | 25091 ft | 470 kts | 120° |
| 2026-04-19 04:04 | 21.38208 | -158.08059 | 25089 ft | 472 kts | 120° |
| 2026-04-19 04:05 | 21.36640 | -158.04957 | 25100 ft | 473 kts | 120° |
| 2026-04-19 04:05 | 21.35070 | -158.01853 | 25100 ft | 474 kts | 120° |
| 2026-04-19 04:05 | 21.33494 | -157.98739 | 25095 ft | 473 kts | 120° |
| 2026-04-19 04:05 | 21.31946 | -157.95677 | 25078 ft | 461 kts | 121° |
| 2026-04-19 04:06 | 21.30425 | -157.92672 | 25086 ft | 457 kts | 121° |
| 2026-04-19 04:06 | 21.28927 | -157.89718 | 25098 ft | 457 kts | 121° |
| 2026-04-19 04:06 | 21.27359 | -157.86702 | 25054 ft | 458 kts | 122° |
| 2026-04-19 04:06 | 21.25729 | -157.83765 | 24593 ft | 457 kts | 124° |
| 2026-04-19 04:07 | 21.24074 | -157.80871 | 24102 ft | 452 kts | 124° |
| 2026-04-19 04:07 | 21.22452 | -157.78049 | 23573 ft | 448 kts | 124° |
| 2026-04-19 04:07 | 21.20834 | -157.75218 | 22933 ft | 444 kts | 124° |
| 2026-04-19 04:07 | 21.19239 | -157.72407 | 22356 ft | 439 kts | 123° |
| 2026-04-19 04:08 | 21.17665 | -157.69618 | 21798 ft | 434 kts | 123° |
| 2026-04-19 04:08 | 21.16112 | -157.66860 | 21253 ft | 430 kts | 123° |
| 2026-04-19 04:08 | 21.14577 | -157.64132 | 20726 ft | 425 kts | 123° |
| 2026-04-19 04:08 | 21.13058 | -157.61435 | 20183 ft | 421 kts | 123° |
| 2026-04-19 04:09 | 21.11551 | -157.58764 | 19669 ft | 417 kts | 122° |
| 2026-04-19 04:09 | 21.10055 | -157.56113 | 19204 ft | 412 kts | 122° |
| 2026-04-19 04:09 | 21.08589 | -157.53517 | 18848 ft | 405 kts | 122° |
| 2026-04-19 04:09 | 21.07137 | -157.50948 | 18377 ft | 402 kts | 122° |
| 2026-04-19 04:10 | 21.05698 | -157.48401 | 17827 ft | 399 kts | 122° |
| 2026-04-19 04:10 | 21.04263 | -157.45864 | 17260 ft | 397 kts | 122° |
| 2026-04-19 04:10 | 21.02837 | -157.43343 | 16726 ft | 395 kts | 122° |
| 2026-04-19 04:10 | 21.01421 | -157.40838 | 16199 ft | 392 kts | 122° |
| 2026-04-19 04:11 | 21.00011 | -157.38346 | 15686 ft | 389 kts | 121° |
| 2026-04-19 04:11 | 20.98614 | -157.35879 | 15186 ft | 387 kts | 121° |
| 2026-04-19 04:11 | 20.97222 | -157.33423 | 14683 ft | 385 kts | 121° |
| 2026-04-19 04:11 | 20.95836 | -157.30977 | 14202 ft | 383 kts | 121° |
| 2026-04-19 04:12 | 20.94458 | -157.28546 | 13663 ft | 382 kts | 121° |
| 2026-04-19 04:12 | 20.93100 | -157.26154 | 13133 ft | 379 kts | 121° |
| 2026-04-19 04:12 | 20.91734 | -157.23748 | 12622 ft | 376 kts | 121° |
| 2026-04-19 04:12 | 20.90381 | -157.21365 | 12124 ft | 373 kts | 121° |
| 2026-04-19 04:13 | 20.89036 | -157.18999 | 11665 ft | 370 kts | 121° |
| 2026-04-19 04:13 | 20.87707 | -157.16658 | 11186 ft | 367 kts | 121° |
| 2026-04-19 04:13 | 20.86388 | -157.14340 | 10892 ft | 359 kts | 120° |
| 2026-04-19 04:13 | 20.85111 | -157.12096 | 10739 ft | 348 kts | 120° |
| 2026-04-19 04:14 | 20.83875 | -157.09924 | 10605 ft | 336 kts | 120° |
| 2026-04-19 04:14 | 20.82678 | -157.07823 | 10468 ft | 326 kts | 121° |
| 2026-04-19 04:14 | 20.81518 | -157.05786 | 10345 ft | 316 kts | 121° |
| 2026-04-19 04:14 | 20.80394 | -157.03812 | 10219 ft | 307 kts | 121° |
| 2026-04-19 04:15 | 20.79299 | -157.01890 | 10093 ft | 298 kts | 121° |
| 2026-04-19 04:15 | 20.78238 | -157.00028 | 9955 ft | 289 kts | 121° |
| 2026-04-19 04:15 | 20.77179 | -156.98172 | 9553 ft | 292 kts | 121° |
| 2026-04-19 04:15 | 20.76210 | -156.96275 | 9220 ft | 290 kts | 111° |
| 2026-04-19 04:16 | 20.75597 | -156.94265 | 8941 ft | 287 kts | 105° |
| 2026-04-19 04:16 | 20.75082 | -156.92210 | 8636 ft | 285 kts | 104° |
| 2026-04-19 04:16 | 20.74578 | -156.90166 | 8353 ft | 284 kts | 104° |
| 2026-04-19 04:16 | 20.74062 | -156.88137 | 8064 ft | 282 kts | 105° |
| 2026-04-19 04:17 | 20.73534 | -156.86126 | 7766 ft | 280 kts | 105° |
| 2026-04-19 04:17 | 20.73000 | -156.84131 | 7476 ft | 279 kts | 105° |
| 2026-04-19 04:17 | 20.72464 | -156.82144 | 7178 ft | 277 kts | 105° |
| 2026-04-19 04:17 | 20.71929 | -156.80169 | 6883 ft | 276 kts | 105° |
| 2026-04-19 04:18 | 20.71399 | -156.78210 | 6606 ft | 274 kts | 105° |
| 2026-04-19 04:18 | 20.70870 | -156.76260 | 6313 ft | 272 kts | 105° |
| 2026-04-19 04:18 | 20.70344 | -156.74319 | 6005 ft | 271 kts | 105° |
| 2026-04-19 04:18 | 20.69820 | -156.72385 | 5709 ft | 269 kts | 105° |
| 2026-04-19 04:19 | 20.69307 | -156.70497 | 5422 ft | 268 kts | 105° |
| 2026-04-19 04:19 | 20.68789 | -156.68591 | 5134 ft | 266 kts | 105° |
| 2026-04-19 04:19 | 20.68274 | -156.66695 | 4835 ft | 266 kts | 105° |
| 2026-04-19 04:19 | 20.67762 | -156.64812 | 4626 ft | 260 kts | 105° |
| 2026-04-19 04:20 | 20.67269 | -156.62985 | 4493 ft | 252 kts | 103° |
| 2026-04-19 04:20 | 20.67299 | -156.61176 | 4368 ft | 243 kts | 69° |
| 2026-04-19 04:20 | 20.68252 | -156.59747 | 4305 ft | 234 kts | 47° |
| 2026-04-19 04:20 | 20.69411 | -156.58555 | 4179 ft | 228 kts | 44° |
| 2026-04-19 04:21 | 20.70585 | -156.57449 | 4024 ft | 224 kts | 40° |
| 2026-04-19 04:21 | 20.71822 | -156.56445 | 3807 ft | 222 kts | 37° |
| 2026-04-19 04:21 | 20.73049 | -156.55517 | 3730 ft | 213 kts | 37° |
| 2026-04-19 04:21 | 20.74253 | -156.54615 | 3471 ft | 209 kts | 37° |
| 2026-04-19 04:22 | 20.75424 | -156.53739 | 3217 ft | 203 kts | 37° |
| 2026-04-19 04:22 | 20.76566 | -156.52884 | 2942 ft | 198 kts | 36° |
| 2026-04-19 04:22 | 20.77677 | -156.52052 | 2685 ft | 192 kts | 36° |
| 2026-04-19 04:22 | 20.78759 | -156.51240 | 2437 ft | 188 kts | 36° |
| 2026-04-19 04:23 | 20.79820 | -156.50446 | 2189 ft | 184 kts | 36° |
| 2026-04-19 04:23 | 20.80853 | -156.49671 | 1950 ft | 179 kts | 36° |
| 2026-04-19 04:23 | 20.81828 | -156.48941 | 1732 ft | 168 kts | 35° |
| 2026-04-19 04:23 | 20.82757 | -156.48244 | 1496 ft | 159 kts | 35° |
| 2026-04-19 04:24 | 20.83645 | -156.47578 | 1328 ft | 154 kts | 33° |
| 2026-04-19 04:24 | 20.84496 | -156.46942 | 1111 ft | 147 kts | 35° |
| 2026-04-19 04:24 | 20.85329 | -156.46318 | 949 ft | 146 kts | 36° |
| 2026-04-19 04:24 | 20.86169 | -156.45690 | 727 ft | 147 kts | 37° |
| 2026-04-19 04:25 | 20.86987 | -156.45070 | 578 ft | 143 kts | 36° |
| 2026-04-19 04:25 | 20.87789 | -156.44468 | 368 ft | 141 kts | 39° |
| 2026-04-19 04:25 | 20.88585 | -156.43880 | 210 ft | 135 kts | 38° |
| 2026-04-19 04:25 | 20.89322 | -156.43331 | 53 ft | 120 kts | 36° |
| 2026-04-19 04:26 | 20.89722 | -156.43071 | 39 ft | 20 kts | 334° |
| 2026-04-19 04:26 | 20.89757 | -156.43163 | 38 ft | 13 kts | 230° |
| 2026-04-19 04:26 | 20.89686 | -156.43219 | 42 ft | 13 kts | 214° |
| 2026-04-19 04:26 | 20.89584 | -156.43320 | 43 ft | 18 kts | 261° |
| 2026-04-19 04:27 | 20.89627 | -156.43428 | 39 ft | 0 kts | 305° |